createdAt,value
2022-08-25T00:00:56.874Z,5.60
2022-08-25T00:03:00.402Z,5.60
2022-08-25T00:05:06.521Z,5.80
2022-08-25T00:07:10.387Z,5.70
2022-08-25T00:09:17.033Z,5.20
2022-08-25T00:11:22.532Z,5.60
2022-08-25T00:13:26.023Z,5.17
2022-08-25T00:15:31.662Z,6.70
2022-08-25T00:17:35.272Z,6.37
2022-08-25T00:19:39.332Z,4.67
2022-08-25T00:21:44.086Z,4.90
2022-08-25T00:26:04.747Z,4.50
2022-08-25T00:28:10.082Z,4.93
2022-08-25T00:30:16.153Z,4.60
2022-08-25T00:32:19.798Z,4.47
2022-08-25T00:34:26.627Z,4.60
2022-08-25T00:36:30.176Z,4.97
2022-08-25T00:38:33.776Z,4.20
2022-08-25T00:40:38.841Z,4.77
2022-08-25T00:42:42.310Z,4.70
2022-08-25T00:44:46.734Z,5.13
2022-08-25T00:46:53.171Z,4.87
2022-08-25T00:51:20.379Z,4.80
2022-08-25T00:53:24.344Z,4.90
2022-08-25T00:55:31.852Z,4.60
2022-08-25T00:57:38.204Z,4.77
2022-08-25T01:01:58.810Z,4.80
2022-08-25T01:04:02.779Z,4.70
2022-08-25T01:06:07.011Z,4.63
2022-08-25T01:08:10.963Z,4.80
2022-08-25T01:10:14.820Z,5.30
2022-08-25T01:12:18.422Z,5.40
2022-08-25T01:14:24.195Z,5.20
2022-08-25T01:16:30.354Z,4.43
2022-08-25T01:18:45.475Z,4.20
2022-08-25T01:20:51.968Z,5.00
2022-08-25T01:22:56.894Z,4.77
2022-08-25T01:25:04.249Z,4.90
2022-08-25T01:27:08.244Z,4.73
2022-08-25T01:29:20.828Z,5.10
2022-08-25T01:31:24.558Z,4.80
2022-08-25T01:33:28.262Z,5.10
2022-08-25T01:35:32.283Z,4.60
2022-08-25T01:37:36.506Z,4.50
2022-08-25T01:39:40.362Z,4.73
2022-08-25T01:41:56.565Z,6.77
2022-08-25T01:46:17.698Z,7.20
2022-08-25T01:48:21.380Z,6.90
2022-08-25T01:50:25.096Z,6.80
2022-08-25T01:52:32.653Z,6.40
2022-08-25T01:54:36.219Z,6.40
2022-08-25T01:58:54.703Z,6.17
2022-08-25T02:01:00.958Z,5.60
2022-08-25T02:03:04.790Z,5.80
2022-08-25T02:05:10.552Z,5.47
2022-08-25T02:07:14.299Z,5.80
2022-08-25T02:09:18.356Z,5.97
2022-08-25T02:13:40.408Z,5.80
2022-08-25T02:15:46.044Z,6.17
2022-08-25T02:17:49.603Z,8.57
2022-08-25T02:19:53.143Z,5.67
2022-08-25T02:21:56.844Z,6.17
2022-08-25T02:24:00.967Z,7.13
2022-08-25T02:26:04.770Z,6.57
2022-08-25T02:28:09.853Z,6.33
2022-08-25T02:30:14.671Z,6.57
2022-08-25T02:32:18.240Z,6.03
2022-08-25T02:34:22.849Z,8.77
2022-08-25T02:36:26.392Z,8.00
2022-08-25T02:38:30.384Z,6.43
2022-08-25T02:40:34.184Z,6.47
2022-08-25T02:42:38.050Z,8.40
2022-08-25T02:44:41.864Z,9.33
2022-08-25T02:49:02.082Z,8.13
2022-08-25T02:53:31.806Z,7.10
2022-08-25T02:55:35.773Z,6.37
2022-08-25T02:57:39.738Z,6.97
2022-08-25T02:59:45.872Z,6.57
2022-08-25T03:01:50.683Z,9.43
2022-08-25T03:03:55.626Z,6.60
2022-08-25T03:06:26.535Z,7.17
2022-08-25T03:08:31.720Z,7.30
2022-08-25T03:10:35.715Z,6.80
2022-08-25T03:12:41.064Z,7.20
2022-08-25T03:14:44.984Z,7.97
2022-08-25T03:16:50.235Z,7.00
2022-08-25T03:18:53.848Z,6.87
2022-08-25T03:20:58.755Z,6.77
2022-08-25T03:25:39.815Z,7.20
2022-08-25T03:27:43.607Z,7.53
2022-08-25T03:32:04.721Z,7.47
2022-08-25T03:34:08.652Z,8.10
2022-08-25T03:36:12.228Z,9.13
2022-08-25T03:38:16.624Z,8.47
2022-08-25T03:42:35.317Z,8.47
2022-08-25T03:44:39.024Z,10.77
2022-08-25T03:46:45.866Z,8.90
2022-08-25T03:51:05.767Z,8.20
2022-08-25T03:53:09.377Z,9.20
2022-08-25T03:55:15.058Z,8.67
2022-08-25T03:57:20.030Z,7.33
2022-08-25T03:59:23.815Z,7.50
2022-08-25T04:01:28.411Z,7.50
2022-08-25T04:03:32.071Z,7.70
2022-08-25T04:05:35.645Z,7.40
2022-08-25T04:07:39.552Z,8.07
2022-08-25T04:09:43.119Z,7.93
2022-08-25T04:11:46.707Z,7.80
2022-08-25T04:16:13.541Z,7.33
2022-08-25T04:18:17.261Z,7.23
2022-08-25T04:20:21.923Z,7.53
2022-08-25T04:22:25.605Z,7.63
2022-08-25T04:24:30.927Z,7.57
2022-08-25T04:26:37.335Z,8.33
2022-08-25T04:28:42.008Z,7.93
2022-08-25T04:30:49.102Z,8.23
2022-08-25T04:32:50.960Z,8.50
2022-08-25T04:37:10.083Z,7.97
2022-08-25T04:39:14.073Z,8.23
2022-08-25T04:41:19.571Z,7.10
2022-08-25T04:43:23.144Z,7.77
2022-08-25T04:45:26.943Z,8.20
2022-08-25T04:47:30.544Z,8.00
2022-08-25T04:49:34.203Z,8.17
2022-08-25T04:51:40.091Z,8.17
2022-08-25T04:53:44.036Z,8.10
2022-08-25T04:55:48.403Z,9.87
2022-08-25T05:00:09.480Z,8.80
2022-08-25T05:02:13.188Z,8.90
2022-08-25T05:04:25.677Z,9.43
2022-08-25T05:06:22.629Z,8.87
2022-08-25T05:08:26.462Z,9.63
2022-08-25T05:10:30.060Z,9.50
2022-08-25T05:12:33.727Z,7.77
2022-08-25T05:14:39.208Z,9.17
2022-08-25T05:16:43.159Z,9.67
2022-08-25T05:18:47.408Z,8.07
2022-08-25T05:20:53.156Z,9.20
2022-08-25T05:22:56.766Z,8.90
2022-08-25T05:25:00.235Z,8.77
2022-08-25T05:27:04.006Z,8.70
2022-08-25T05:29:10.090Z,8.37
2022-08-25T05:31:15.351Z,8.00
2022-08-25T05:33:19.682Z,8.10
2022-08-25T05:35:23.440Z,8.73
2022-08-25T05:37:27.000Z,8.80
2022-08-25T05:39:33.205Z,8.37
2022-08-25T05:41:36.827Z,9.20
2022-08-25T05:43:42.057Z,9.33
2022-08-25T05:45:46.439Z,8.93
2022-08-25T05:50:08.330Z,8.93
2022-08-25T05:52:16.406Z,8.33
2022-08-25T05:54:17.698Z,10.93
2022-08-25T05:56:21.348Z,8.97
2022-08-25T05:58:26.423Z,9.47
2022-08-25T06:00:29.886Z,8.80
2022-08-25T06:02:43.619Z,9.23
2022-08-25T06:04:47.423Z,9.30
2022-08-25T06:06:53.295Z,9.27
2022-08-25T06:08:56.893Z,9.17
2022-08-25T06:11:00.331Z,8.87
2022-08-25T06:13:04.415Z,8.23
2022-08-25T06:15:12.595Z,8.17
2022-08-25T06:17:17.039Z,8.93
2022-08-25T06:19:21.264Z,9.97
2022-08-25T06:21:24.944Z,9.77
2022-08-25T06:23:28.544Z,10.97
2022-08-25T06:25:33.304Z,9.43
2022-08-25T06:27:37.699Z,8.97
2022-08-25T06:29:41.844Z,11.93
2022-08-25T06:34:00.416Z,11.23
2022-08-25T06:38:20.875Z,8.40
2022-08-25T06:40:25.514Z,8.50
2022-08-25T06:42:29.067Z,7.90
2022-08-25T06:44:32.582Z,8.33
2022-08-25T06:46:37.059Z,7.73
2022-08-25T06:48:41.336Z,8.30
2022-08-25T06:50:45.014Z,8.77
2022-08-25T06:52:48.470Z,8.37
2022-08-25T06:54:52.630Z,8.73
2022-08-25T06:56:56.392Z,7.83
2022-08-25T06:59:02.324Z,12.90
2022-08-25T07:01:15.820Z,12.90
2022-08-25T07:03:16.739Z,16.70
2022-08-25T07:05:33.552Z,13.20
2022-08-25T07:07:25.834Z,13.47
2022-08-25T07:09:32.932Z,12.10
2022-08-25T07:11:37.079Z,13.07
2022-08-25T07:13:41.184Z,13.83
2022-08-25T07:15:44.970Z,12.30
2022-08-25T07:17:49.631Z,15.33
2022-08-25T07:19:57.638Z,12.57
2022-08-25T07:21:59.200Z,11.60
2022-08-25T07:26:41.377Z,12.00
2022-08-25T07:28:31.993Z,11.50
2022-08-25T07:30:35.555Z,12.43
2022-08-25T07:32:42.070Z,14.20
2022-08-25T07:35:02.544Z,12.13
2022-08-25T07:39:26.627Z,11.73
2022-08-25T07:41:34.164Z,11.03
2022-08-25T07:43:37.730Z,10.47
2022-08-25T07:45:49.115Z,12.13
2022-08-25T07:47:47.970Z,11.80
2022-08-25T07:49:51.916Z,13.03
2022-08-25T07:52:05.532Z,12.30
2022-08-25T07:54:02.576Z,12.13
2022-08-25T07:58:26.250Z,11.13
2022-08-25T08:00:32.141Z,11.20
2022-08-25T08:02:37.663Z,10.70
2022-08-25T08:04:41.932Z,11.30
2022-08-25T08:06:45.412Z,13.37
2022-08-25T08:08:54.512Z,10.03
2022-08-25T08:11:05.173Z,9.87
2022-08-25T08:13:02.498Z,9.63
2022-08-25T08:17:26.304Z,9.87
2022-08-25T08:19:30.277Z,11.97
2022-08-25T08:21:35.903Z,10.77
2022-08-25T08:23:39.587Z,10.47
2022-08-25T08:25:43.711Z,9.53
2022-08-25T08:27:47.265Z,10.97
2022-08-25T08:29:51.722Z,11.23
2022-08-25T08:31:55.917Z,10.00
2022-08-25T08:34:00.334Z,11.33
2022-08-25T08:38:21.447Z,10.43
2022-08-25T08:42:53.072Z,9.83
2022-08-25T08:47:27.838Z,10.60
2022-08-25T08:49:36.936Z,9.80
2022-08-25T08:51:44.174Z,10.90
2022-08-25T08:56:12.551Z,10.93
2022-08-25T08:58:19.573Z,10.17
2022-08-25T09:00:25.851Z,11.37
2022-08-25T09:02:39.477Z,11.23
2022-08-25T09:07:01.444Z,11.80
2022-08-25T09:09:08.154Z,9.77
2022-08-25T09:11:16.326Z,13.30
2022-08-25T09:16:03.206Z,10.23
2022-08-25T09:20:49.410Z,10.00
2022-08-25T09:22:57.378Z,10.07
2022-08-25T09:27:26.774Z,8.93
2022-08-25T09:29:35.390Z,9.07
2022-08-25T09:31:51.705Z,8.87
2022-08-25T09:34:27.654Z,8.17
2022-08-25T09:36:37.645Z,8.47
2022-08-25T09:38:41.246Z,9.97
2022-08-25T09:40:48.186Z,10.07
2022-08-25T09:42:57.876Z,8.20
2022-08-25T09:45:00.135Z,9.20
2022-08-25T09:47:08.167Z,10.40
2022-08-25T09:51:38.023Z,8.10
2022-08-25T09:53:41.758Z,8.73
2022-08-25T09:55:48.794Z,8.63
2022-08-25T09:57:56.166Z,8.53
2022-08-25T10:00:12.916Z,8.77
2022-08-25T10:02:24.686Z,8.33
2022-08-25T10:04:31.628Z,8.33
2022-08-25T10:06:39.105Z,8.43
2022-08-25T10:08:54.868Z,8.50
2022-08-25T10:11:00.848Z,8.47
2022-08-25T10:15:30.480Z,8.00
2022-08-25T10:17:33.550Z,9.90
2022-08-25T10:19:37.236Z,9.07
2022-08-25T10:21:42.847Z,9.33
2022-08-25T10:23:51.899Z,9.07
2022-08-25T10:25:59.035Z,9.87
2022-08-25T10:28:07.704Z,9.07
2022-08-25T10:30:19.904Z,9.50
2022-08-25T10:32:27.326Z,9.17
2022-08-25T10:34:44.371Z,8.87
2022-08-25T10:36:56.172Z,10.00
2022-08-25T10:39:01.874Z,8.00
2022-08-25T10:41:13.205Z,7.60
2022-08-25T10:45:43.475Z,8.60
2022-08-25T10:48:02.257Z,8.30
2022-08-25T10:50:10.954Z,7.67
2022-08-25T10:54:39.075Z,7.60
2022-08-25T10:56:48.393Z,8.70
2022-08-25T11:01:46.623Z,7.93
2022-08-25T11:03:54.064Z,9.13
2022-08-25T11:06:00.935Z,7.63
2022-08-25T11:08:10.025Z,8.17
2022-08-25T11:10:18.377Z,8.27
2022-08-25T11:14:42.843Z,8.13
2022-08-25T11:16:50.305Z,7.20
2022-08-25T11:18:58.299Z,7.93
2022-08-25T11:21:07.916Z,6.90
2022-08-25T11:23:15.923Z,10.30
2022-08-25T11:27:43.355Z,9.53
2022-08-25T11:29:51.644Z,9.58
2022-08-25T11:31:55.349Z,7.77
2022-08-25T11:33:59.592Z,8.57
2022-08-25T11:36:07.871Z,9.17
2022-08-25T11:38:27.377Z,9.20
2022-08-25T11:43:30.178Z,7.65
2022-08-25T11:45:54.402Z,8.43
2022-08-25T11:50:30.661Z,9.93
2022-08-25T11:52:43.527Z,11.90
2022-08-25T11:54:47.892Z,8.23
2022-08-25T11:56:58.758Z,10.70
2022-08-25T11:59:03.855Z,8.77
2022-08-25T12:01:10.877Z,9.00
2022-08-25T12:06:21.085Z,7.83
2022-08-25T12:08:51.106Z,8.90
2022-08-25T12:11:01.063Z,8.40
2022-08-25T12:13:25.261Z,6.67
2022-08-25T12:15:31.552Z,8.77
2022-08-25T12:17:39.909Z,7.57
2022-08-25T12:19:53.402Z,7.50
2022-08-25T12:21:59.936Z,7.50
2022-08-25T12:24:16.900Z,7.13
2022-08-25T12:26:26.470Z,7.60
2022-08-25T12:28:39.099Z,7.83
2022-08-25T12:30:47.098Z,8.60
2022-08-25T12:33:01.663Z,7.65
2022-08-25T12:35:34.401Z,8.63
2022-08-25T12:37:56.952Z,8.73
2022-08-25T12:40:03.502Z,8.03
2022-08-25T12:42:10.014Z,8.95
2022-08-25T12:44:18.096Z,8.90
2022-08-25T12:46:38.874Z,9.70
2022-08-25T12:49:00.087Z,12.15
2022-08-25T12:51:07.898Z,10.30
2022-08-25T12:53:14.826Z,11.90
2022-08-25T12:55:20.735Z,10.77
2022-08-25T12:57:40.974Z,9.33
2022-08-25T12:59:49.395Z,10.97
2022-08-25T13:02:52.250Z,9.63
2022-08-25T13:07:21.768Z,10.10
2022-08-25T13:09:48.462Z,15.13
2022-08-25T13:11:56.601Z,10.50
2022-08-25T13:14:03.952Z,13.43
2022-08-25T13:16:10.771Z,11.43
2022-08-25T13:18:18.851Z,14.07
2022-08-25T13:20:28.547Z,12.65
2022-08-25T13:22:32.148Z,9.05
2022-08-25T13:24:40.408Z,8.33
2022-08-25T13:26:48.102Z,10.25
2022-08-25T13:28:56.223Z,9.88
2022-08-25T13:31:05.406Z,11.68
2022-08-25T13:33:21.924Z,12.83
2022-08-25T13:35:32.211Z,11.30
2022-08-25T13:37:33.510Z,16.37
2022-08-25T13:39:55.413Z,16.73
2022-08-25T13:41:48.991Z,8.80
2022-08-25T13:43:55.915Z,8.83
2022-08-25T13:46:01.368Z,10.20
2022-08-25T13:48:05.604Z,14.28
2022-08-25T13:50:32.958Z,9.27
2022-08-25T13:52:37.357Z,8.80
2022-08-25T13:54:42.937Z,10.45
2022-08-25T13:59:28.125Z,9.30
2022-08-25T14:01:48.620Z,8.93
2022-08-25T14:03:42.387Z,8.60
2022-08-25T14:05:47.656Z,8.25
2022-08-25T14:08:03.780Z,9.88
2022-08-25T14:10:02.192Z,9.83
2022-08-25T14:12:06.314Z,9.18
2022-08-25T14:14:12.531Z,8.80
2022-08-25T14:16:20.301Z,8.40
2022-08-25T14:18:27.900Z,8.05
2022-08-25T14:20:33.376Z,7.83
2022-08-25T14:22:37.856Z,8.90
2022-08-25T14:24:43.307Z,8.45
2022-08-25T14:26:54.079Z,8.83
2022-08-25T14:28:53.340Z,10.40
2022-08-25T14:30:59.638Z,7.85
2022-08-25T14:33:05.043Z,9.60
2022-08-25T14:35:11.584Z,8.38
2022-08-25T14:37:20.191Z,8.20
2022-08-25T14:39:25.494Z,8.00
2022-08-25T14:41:29.069Z,8.85
2022-08-25T14:43:32.681Z,8.23
2022-08-25T14:45:37.856Z,8.55
2022-08-25T14:47:41.849Z,8.23
2022-08-25T14:49:47.372Z,11.15
2022-08-25T14:51:51.939Z,9.80
2022-08-25T14:53:59.906Z,9.43
2022-08-25T14:56:08.647Z,8.58
2022-08-25T14:58:09.663Z,8.40
2022-08-25T15:00:14.424Z,9.38
2022-08-25T15:02:21.566Z,8.33
2022-08-25T15:04:29.374Z,8.38
2022-08-25T15:06:34.477Z,8.95
2022-08-25T15:08:55.755Z,10.00
2022-08-25T15:10:59.488Z,9.08
2022-08-25T15:13:03.109Z,9.08
2022-08-25T15:15:09.481Z,9.15
2022-08-25T15:17:13.897Z,8.97
2022-08-25T15:19:22.123Z,9.50
2022-08-25T15:21:26.985Z,9.43
2022-08-25T15:23:30.597Z,8.30
2022-08-25T15:25:34.176Z,9.60
2022-08-25T15:27:38.219Z,9.18
2022-08-25T15:29:41.836Z,8.73
2022-08-25T15:34:01.124Z,9.03
2022-08-25T15:36:05.612Z,9.65
2022-08-25T15:38:09.187Z,8.38
2022-08-25T15:40:14.576Z,9.60
2022-08-25T15:42:18.465Z,8.85
2022-08-25T15:44:25.071Z,9.13
2022-08-25T15:46:29.549Z,8.98
2022-08-25T15:48:33.129Z,8.13
2022-08-25T15:50:37.027Z,8.43
2022-08-25T15:54:58.623Z,9.18
2022-08-25T15:57:02.234Z,10.05
2022-08-25T15:59:08.444Z,9.68
2022-08-25T16:01:14.037Z,9.58
2022-08-25T16:03:17.755Z,8.78
2022-08-25T16:05:25.746Z,9.73
2022-08-25T16:07:26.935Z,10.40
2022-08-25T16:09:31.104Z,9.68
2022-08-25T16:11:35.145Z,8.38
2022-08-25T16:13:38.883Z,11.97
2022-08-25T16:18:05.101Z,8.65
2022-08-25T16:20:12.628Z,9.83
2022-08-25T16:22:16.040Z,10.25
2022-08-25T16:24:19.677Z,10.10
2022-08-25T16:26:23.599Z,8.73
2022-08-25T16:28:27.759Z,8.50
2022-08-25T16:30:31.357Z,8.03
2022-08-25T16:32:34.962Z,8.93
2022-08-25T16:34:39.905Z,11.68
2022-08-25T16:36:43.421Z,8.00
2022-08-25T16:41:08.782Z,8.00
2022-08-25T16:43:11.536Z,10.20
2022-08-25T16:45:15.064Z,8.23
2022-08-25T16:47:20.519Z,13.27
2022-08-25T16:49:25.442Z,8.47
2022-08-25T16:51:32.434Z,10.08
2022-08-25T16:53:52.576Z,7.50
2022-08-25T16:56:02.035Z,8.97
2022-08-25T16:58:06.971Z,8.00
2022-08-25T17:00:14.873Z,8.63
2022-08-25T17:02:18.620Z,8.33
2022-08-25T17:04:29.454Z,7.73
2022-08-25T17:06:32.526Z,10.57
2022-08-25T17:08:36.623Z,8.90
2022-08-25T17:10:42.326Z,7.50
2022-08-25T17:12:46.017Z,8.30
2022-08-25T17:14:49.621Z,9.60
2022-08-25T17:16:54.588Z,8.63
2022-08-25T17:18:59.727Z,8.87
2022-08-25T17:21:07.177Z,8.83
2022-08-25T17:23:12.132Z,8.30
2022-08-25T17:25:16.553Z,8.07
2022-08-25T17:27:20.886Z,7.87
2022-08-25T17:29:24.888Z,8.03
2022-08-25T17:31:29.969Z,8.37
2022-08-25T17:33:36.461Z,8.37
2022-08-25T17:35:42.588Z,7.70
2022-08-25T17:37:46.057Z,7.37
2022-08-25T17:40:02.742Z,7.20
2022-08-25T17:41:57.172Z,7.93
2022-08-25T17:44:01.835Z,7.43
2022-08-25T17:46:06.151Z,8.10
2022-08-25T17:50:27.288Z,8.10
2022-08-25T17:54:46.821Z,7.50
2022-08-25T17:56:51.105Z,7.53
2022-08-25T18:01:17.352Z,8.00
2022-08-25T18:03:21.178Z,7.70
2022-08-25T18:05:27.812Z,7.20
2022-08-25T18:07:31.929Z,8.07
2022-08-25T18:09:35.536Z,11.80
2022-08-25T18:11:41.569Z,7.50
2022-08-25T18:13:46.540Z,8.77
2022-08-25T18:15:50.145Z,7.93
2022-08-25T18:17:54.812Z,7.10
2022-08-25T18:20:00.181Z,9.97
2022-08-25T18:24:23.712Z,7.20
2022-08-25T18:26:27.336Z,7.60
2022-08-25T18:28:31.603Z,8.47
2022-08-25T18:30:35.473Z,6.83
2022-08-25T18:32:39.148Z,7.70
2022-08-25T18:34:42.744Z,7.60
2022-08-25T18:36:46.376Z,8.00
2022-08-25T18:39:08.107Z,10.40
2022-08-25T18:41:12.103Z,8.80
2022-08-25T18:43:15.931Z,8.23
2022-08-25T18:45:20.327Z,8.20
2022-08-25T18:47:24.339Z,11.90
2022-08-25T18:49:28.898Z,8.17
2022-08-25T18:51:32.952Z,8.53
2022-08-25T18:53:49.658Z,7.83
2022-08-25T18:55:43.284Z,8.77
2022-08-25T18:57:47.917Z,8.93
2022-08-25T18:59:53.329Z,10.57
2022-08-25T19:01:57.101Z,8.83
2022-08-25T19:04:00.772Z,10.47
2022-08-25T19:06:05.186Z,9.20
2022-08-25T19:08:11.901Z,9.20
2022-08-25T19:10:16.487Z,8.87
2022-08-25T19:12:22.666Z,9.43
2022-08-25T19:14:26.385Z,7.87
2022-08-25T19:16:35.591Z,10.10
2022-08-25T19:18:39.991Z,8.97
2022-08-25T19:22:59.635Z,12.87
2022-08-25T19:25:04.737Z,9.30
2022-08-25T19:27:12.928Z,10.63
2022-08-25T19:29:17.152Z,8.80
2022-08-25T19:31:22.757Z,8.30
2022-08-25T19:33:42.270Z,8.10
2022-08-25T19:35:35.543Z,8.73
2022-08-25T19:37:39.356Z,8.80
2022-08-25T19:39:52.725Z,8.70
2022-08-25T19:41:53.090Z,8.90
2022-08-25T19:43:57.692Z,8.67
2022-08-25T19:46:01.558Z,8.33
2022-08-25T19:50:21.850Z,7.93
2022-08-25T19:52:26.737Z,9.23
2022-08-25T19:54:33.160Z,7.90
2022-08-25T19:56:37.269Z,8.80
2022-08-25T19:58:42.658Z,8.63
2022-08-25T20:00:48.335Z,8.03
2022-08-25T20:02:52.329Z,9.00
2022-08-25T20:04:58.707Z,8.33
2022-08-25T20:09:35.469Z,9.77
2022-08-25T20:11:25.020Z,9.00
2022-08-25T20:13:28.720Z,8.30
2022-08-25T20:15:34.351Z,9.33
2022-08-25T20:17:38.814Z,9.80
2022-08-25T20:19:44.227Z,8.30
2022-08-25T20:21:48.264Z,9.43
2022-08-25T20:24:09.823Z,9.77
2022-08-25T20:26:13.523Z,10.17
2022-08-25T20:28:18.987Z,9.10
2022-08-25T20:30:25.095Z,12.13
2022-08-25T20:32:29.193Z,10.70
2022-08-25T20:34:32.841Z,9.27
2022-08-25T20:36:39.974Z,9.17
2022-08-25T20:38:46.457Z,11.87
2022-08-25T20:40:50.108Z,9.90
2022-08-25T20:42:54.192Z,9.33
2022-08-25T20:44:58.508Z,9.77
2022-08-25T20:49:19.620Z,11.17
2022-08-25T20:51:24.885Z,10.80
2022-08-25T20:53:28.416Z,11.37
2022-08-25T20:55:32.297Z,9.93
2022-08-25T20:57:38.008Z,11.67
2022-08-25T21:01:58.473Z,10.60
2022-08-25T21:04:02.800Z,9.13
2022-08-25T21:08:29.837Z,9.50
2022-08-25T21:10:34.559Z,11.00
2022-08-25T21:12:38.790Z,9.50
2022-08-25T21:14:43.600Z,10.23
2022-08-25T21:16:48.134Z,9.37
2022-08-25T21:18:51.784Z,9.17
2022-08-25T21:20:55.379Z,9.37
2022-08-25T21:22:58.996Z,9.20
2022-08-25T21:25:02.732Z,8.87
2022-08-25T21:27:07.656Z,8.00
2022-08-25T21:29:11.215Z,8.37
2022-08-25T21:31:18.349Z,10.20
2022-08-25T21:33:22.019Z,8.63
2022-08-25T21:35:27.415Z,10.13
2022-08-25T21:37:33.732Z,9.17
2022-08-25T21:39:37.304Z,9.73
2022-08-25T21:41:43.563Z,8.43
2022-08-25T21:43:49.404Z,9.67
2022-08-25T21:45:53.017Z,9.27
2022-08-25T21:47:58.379Z,9.80
2022-08-25T21:50:01.954Z,9.17
2022-08-25T21:54:24.135Z,9.07
2022-08-25T21:56:27.026Z,10.97
2022-08-25T21:58:31.939Z,8.93
2022-08-25T22:00:36.550Z,8.90
2022-08-25T22:02:40.355Z,9.20
2022-08-25T22:04:46.469Z,8.87
2022-08-25T22:06:51.882Z,9.20
2022-08-25T22:08:55.565Z,9.40
2022-08-25T22:11:00.942Z,8.50
2022-08-25T22:13:04.940Z,9.70
2022-08-25T22:17:24.837Z,9.37
2022-08-25T22:19:28.604Z,10.67
2022-08-25T22:21:32.863Z,8.20
2022-08-25T22:23:40.037Z,8.50
2022-08-25T22:25:41.895Z,8.43
2022-08-25T22:27:46.262Z,8.37
2022-08-25T22:29:50.281Z,8.47
2022-08-25T22:32:00.725Z,8.50
2022-08-25T22:34:01.557Z,8.53
2022-08-25T22:36:15.082Z,9.07
2022-08-25T22:38:18.634Z,9.63
2022-08-25T22:40:22.718Z,10.73
2022-08-25T22:42:27.553Z,9.70
2022-08-25T22:44:31.128Z,9.20
2022-08-25T22:46:34.723Z,9.77
2022-08-25T22:48:39.395Z,9.50
2022-08-25T22:50:44.467Z,9.77
2022-08-25T22:52:48.368Z,9.90
2022-08-25T22:54:51.906Z,9.47
2022-08-25T22:56:56.740Z,10.13
2022-08-25T22:59:01.975Z,11.47
2022-08-25T23:01:07.988Z,10.67
2022-08-25T23:03:11.520Z,10.37
2022-08-25T23:07:34.330Z,11.97
2022-08-25T23:09:38.101Z,10.03
2022-08-25T23:11:42.443Z,10.40
2022-08-25T23:13:46.406Z,10.83
2022-08-25T23:15:51.207Z,10.50
2022-08-25T23:17:54.846Z,10.63
2022-08-25T23:19:58.395Z,10.73
2022-08-25T23:22:11.946Z,10.30
2022-08-25T23:26:33.374Z,10.40
2022-08-25T23:28:38.568Z,10.80
2022-08-25T23:30:44.828Z,10.73
2022-08-25T23:32:48.743Z,10.33
2022-08-25T23:34:53.759Z,10.73
2022-08-25T23:36:57.772Z,11.10
2022-08-25T23:39:01.864Z,11.83
2022-08-25T23:41:07.483Z,10.97
2022-08-25T23:45:30.865Z,11.40
2022-08-25T23:47:34.318Z,13.40
2022-08-25T23:49:38.567Z,11.80
2022-08-25T23:51:42.460Z,11.53
2022-08-25T23:53:47.814Z,11.53
2022-08-25T23:55:54.244Z,11.50
2022-08-25T23:57:58.983Z,11.33
